Weather observations for the past three days for
Lawton, Lawton Municipal Airport
Imperial (Metric)
Date Time (cdt) Wind (mph) Vis. (mi.) Weather Sky Cond. Temperature (ºF) Relative Humidity Wind Chill (°F) Heat Index (°F) Pressure Precipitation (in)
Air Dwpt 6 hour altimeter (in) sea level (mb) 1 hr 3 hr 6 hr
Max. Min.
02 01:53 Calm 10.00 Fair CLR 78.1 61 56% 80 29.98 1013.7
02 00:53 SE 5 10.00 Fair CLR 81 61 98.1 79 51% 82 29.98 1013.7
01 23:53 SE 5 10.00 Fair CLR 84 60.1 44% 84 29.98 1013.5
01 22:53 SE 7 10.00 Fair CLR 88 61 40% 88 29.97 1013.3
01 21:53 SE 8 10.00 Fair CLR 90 61 38% 90 29.95 1012.6
01 20:53 SE 10 10.00 Fair CLR 91.9 60.1 34% 92 29.93 1011.8
01 19:53 SE 9 10.00 Fair CLR 95 60.1 31% 95 29.92 1011.7
01 18:53 SE 10 10.00 A Few Clouds FEW100 98.1 57.9 102 95 26% 97 29.92 1011.7
01 17:53 S 9 10.00 Fair CLR 100 55.9 23% 99 29.92 1011.8
01 16:53 Vrbl 5 10.00 Fair CLR 100.9 55 22% 99 29.93 1011.8
01 15:53 S 6 10.00 Fair CLR 98.1 55.9 24% 97 29.95 1012.6
01 14:53 S 10 G 22 10.00 A Few Clouds FEW100 98.1 55.9 24% 97 29.97 1013.5
01 13:53 SW 8 10.00 Fair CLR 99 55.9 24% 98 30 1014.3
01 12:53 S 13 G 17 10.00 Partly Cloudy SCT080 98.1 57 99 69.1 25% 97 30.02 1015.1
01 11:53 SW 9 10.00 A Few Clouds FEW090 96.1 60.1 30% 96 30.04 1015.5
01 10:53 S 8 10.00 Fair CLR 93.9 62.1 35% 95 30.04 1015.8
01 09:53 SW 7 10.00 Fair CLR 88 62.1 42% 88 30.05 1016.2
01 08:53 SE 3 10.00 Fair CLR 81 60.1 49% 82 30.06 1016.4
01 07:53 E 3 10.00 Fair CLR 73 61 66% 30.04 1015.9
01 06:53 Calm 10.00 Partly Cloudy SCT100 70 60.1 78.1 70 71% 30.03 1015.5
01 05:53 Calm 10.00 Mostly Cloudy BKN100 73 59 62% 30.02 1015.2
01 04:53 E 6 10.00 Overcast OVC100 75.9 59 56% 78 30 1014.4
01 03:53 Calm 10.00 A Few Clouds FEW100 72 60.1 66% 30.01 1014.6
01 02:53 Calm 10.00 Fair CLR 73 60.1 64% 30 1014.4
01 01:53 E 3 10.00 Fair CLR 75 57.9 55% 78 30 1014.4
01 00:53 E 3 10.00 Fair CLR 75.9 59 98.1 75.9 56% 78 30 1014.2
31 23:53 SE 5 10.00 Fair CLR 81 57.9 45% 81 29.99 1014.0
31 22:53 SE 7 10.00 Fair CLR 84 59 43% 84 29.98 1013.6
31 21:53 SE 8 10.00 Fair CLR 86 57 37% 85 29.96 1013.1
31 20:53 SE 8 10.00 Fair CLR 88 52 29% 86 29.94 1012.2
31 19:53 SE 7 10.00 Fair CLR 95 51.1 23% 92 29.92 1011.7
31 18:53 SE 10 10.00 Fair CLR 98.1 51.1 102.9 96.1 20% 95 29.92 1011.7
31 17:53 SE 13 G 23 10.00 Fair CLR 100 54 21% 98 29.93 1011.9
31 16:53 S 12 10.00 A Few Clouds FEW095 100.9 55 22% 99 29.94 1012.1
31 15:53 SE 8 G 20 10.00 Partly Cloudy SCT090 100.9 55.9 22% 100 29.95 1012.6
31 14:53 S 9 G 17 10.00 Partly Cloudy SCT090 100.9 57.9 24% 101 29.97 1013.2
31 13:53 Calm 10.00 Partly Cloudy SCT090 98.1 59 27% 98 29.99 1014.0
31 12:53 S 12 10.00 A Few Clouds FEW075 99 61 99 71.1 29% 100 30.01 1014.5
31 11:53 S 10 10.00 Fair CLR 96.1 64.9 36% 99 30.03 1015.1
31 10:53 SW 10 G 17 10.00 Fair CLR 93 66 41% 96 30.04 1015.4
31 09:53 S 12 G 20 10.00 Fair CLR 88 64.9 46% 90 30.04 1015.6
31 08:53 SE 3 10.00 Fair CLR 81 61 51% 82 30.03 1015.4
31 07:53 Calm 10.00 Fair CLR 73.9 60.1 62% 30.01 1014.6
31 06:53 E 3 10.00 Fair CLR 72 57.9 84 70 61% 29.99 1014.0
31 05:53 E 3 10.00 Fair CLR 71.1 57.9 63% 29.98 1013.6
31 04:53 E 5 10.00 Fair CLR 73.9 57 56% 29.97 1013.3
31 03:53 NE 3 10.00 Fair CLR 75 57 54% 78 29.96 1012.8
31 02:53 E 3 10.00 Fair CLR 78.1 55.9 47% 79 29.95 1012.6
31 01:53 S 7 10.00 Fair CLR 82 55.9 41% 82 29.95 1012.5
31 00:53 SE 8 10.00 Fair CLR 84 55 100.9 84 37% 83 29.94 1012.2
30 23:53 SE 10 10.00 Fair CLR 86 55 35% 84 29.94 1012.0
30 22:53 SE 12 10.00 Fair CLR 88 55 33% 86 29.93 1011.7
30 21:53 SE 8 10.00 Fair CLR 90 55 31% 88 29.91 1011.3
30 20:53 SE 10 10.00 Fair CLR 93.9 55 27% 92 29.89 1010.4
30 19:53 S 12 10.00 Fair CLR 96.1 55.9 26% 94 29.87 1010.0
30 18:53 S 13 G 18 10.00 Fair CLR 100.9 55.9 104 98.1 22% 100 29.87 1009.9
30 17:53 S 6 G 20 10.00 Fair CLR 102 55 21% 101 29.88 1010.0
30 16:53 S 17 G 24 10.00 Fair CLR 102.9 57.9 23% 103 29.88 1010.2
30 15:53 S 9 10.00 Fair CLR 102.9 57.9 23% 103 29.9 1010.9
30 14:53 S 12 G 33 10.00 A Few Clouds FEW095 102 60.1 25% 103 29.92 1011.5
30 13:53 S 10 G 21 10.00 A Few Clouds FEW090 100.9 61 27% 102 29.94 1012.2
30 12:53 S 16 G 30 10.00 Fair CLR 99 62.1 100 73 30% 100 29.97 1013.0
30 11:53 S 15 G 22 10.00 Fair CLR 98.1 63 32% 100 29.99 1013.8
30 10:53 S 14 G 22 10.00 Fair CLR 93.9 64 37% 96 30 1014.2
30 09:53 S 14 10.00 Fair CLR 89.1 64 43% 90 30.01 1014.6
30 07:53 SE 5 10.00 Fair CLR 75.9 61 60% 78 29.99 1014.2
30 06:53 SE 5 10.00 Fair CLR 73 60.1 84 73 64% 29.98 1013.7
30 05:53 SE 5 10.00 Fair CLR 73.9 59 60% 29.97 1013.1
30 04:53 E 6 10.00 Fair CLR 73.9 57.9 57% 29.96 1012.8
30 03:53 E 5 10.00 Fair CLR 77 57.9 52% 79 29.95 1012.6
30 02:53 S 6 10.00 Fair CLR 80.1 57.9 47% 81 29.95 1012.5
Date Time (cdt) Wind (mph) Vis. (mi.) Weather Sky Cond. Air Dwpt Max. Min. Relative Humidity Wind Chill (°F) Heat Index (°F) altimeter (in) sea level (mb) 1 hr 3 hr 6 hr
6 hour
Temperature (ºF) Pressure Precipitation (in)